sensor_id;sensor_type;location;lat;lon;timestamp;temperature;humidity
20985;DHT22;10651;47.552;7.606;2022-12-07T06:22:46;6.20;99.90
20985;DHT22;10651;47.552;7.606;2022-12-07T06:25:12;6.00;99.90
20985;DHT22;10651;47.552;7.606;2022-12-07T06:27:38;6.10;99.90
20985;DHT22;10651;47.552;7.606;2022-12-07T06:30:07;6.10;99.90
20985;DHT22;10651;47.552;7.606;2022-12-07T06:32:38;6.10;99.90
20985;DHT22;10651;47.552;7.606;2022-12-07T06:35:12;6.20;99.90
20985;DHT22;10651;47.552;7.606;2022-12-07T06:37:41;6.10;99.90
20985;DHT22;10651;47.552;7.606;2022-12-07T06:40:07;6.10;99.90
20985;DHT22;10651;47.552;7.606;2022-12-07T06:42:33;6.10;99.90
20985;DHT22;10651;47.552;7.606;2022-12-07T06:44:59;6.20;99.90
20985;DHT22;10651;47.552;7.606;2022-12-07T06:47:24;6.10;99.90
20985;DHT22;10651;47.552;7.606;2022-12-07T06:49:50;6.10;99.90
20985;DHT22;10651;47.552;7.606;2022-12-07T06:52:16;5.90;99.90
20985;DHT22;10651;47.552;7.606;2022-12-07T06:54:41;5.90;99.90
20985;DHT22;10651;47.552;7.606;2022-12-07T06:57:07;6.00;99.90
20985;DHT22;10651;47.552;7.606;2022-12-07T06:59:33;6.10;99.90
20985;DHT22;10651;47.552;7.606;2022-12-07T07:01:58;6.20;99.90
20985;DHT22;10651;47.552;7.606;2022-12-07T07:04:24;6.20;99.90
20985;DHT22;10651;47.552;7.606;2022-12-07T07:06:53;6.30;99.90
20985;DHT22;10651;47.552;7.606;2022-12-07T07:09:22;6.30;99.90
20985;DHT22;10651;47.552;7.606;2022-12-07T07:11:47;6.30;99.90
20985;DHT22;10651;47.552;7.606;2022-12-07T07:17:10;6.10;99.90
20985;DHT22;10651;47.552;7.606;2022-12-07T07:19:36;6.10;99.90
20985;DHT22;10651;47.552;7.606;2022-12-07T07:24:47;6.10;99.90
20985;DHT22;10651;47.552;7.606;2022-12-07T07:27:13;6.10;99.90
20985;DHT22;10651;47.552;7.606;2022-12-07T07:29:39;6.10;99.90
20985;DHT22;10651;47.552;7.606;2022-12-07T07:32:05;6.20;99.90
20985;DHT22;10651;47.552;7.606;2022-12-07T07:34:31;6.10;99.90
20985;DHT22;10651;47.552;7.606;2022-12-07T07:36:57;6.10;99.90
20985;DHT22;10651;47.552;7.606;2022-12-07T07:39:26;6.00;99.90
20985;DHT22;10651;47.552;7.606;2022-12-07T07:41:54;6.10;99.90
20985;DHT22;10651;47.552;7.606;2022-12-07T07:44:25;6.10;99.90
20985;DHT22;10651;47.552;7.606;2022-12-07T07:46:51;6.10;99.90
20985;DHT22;10651;47.552;7.606;2022-12-07T07:49:17;6.10;99.90
20985;DHT22;10651;47.552;7.606;2022-12-07T07:51:45;6.20;99.90
20985;DHT22;10651;47.552;7.606;2022-12-07T07:54:11;6.20;99.90
20985;DHT22;10651;47.552;7.606;2022-12-07T07:56:40;6.30;99.90
20985;DHT22;10651;47.552;7.606;2022-12-07T07:59:06;6.20;99.90
20985;DHT22;10651;47.552;7.606;2022-12-07T08:01:31;6.30;99.90
20985;DHT22;10651;47.552;7.606;2022-12-07T08:04:22;6.20;99.90
20985;DHT22;10651;47.552;7.606;2022-12-07T08:06:48;6.20;99.90
20985;DHT22;10651;47.552;7.606;2022-12-07T08:09:14;6.40;99.90
20985;DHT22;10651;47.552;7.606;2022-12-07T08:11:40;6.50;99.90
20985;DHT22;10651;47.552;7.606;2022-12-07T08:14:06;6.50;99.90
20985;DHT22;10651;47.552;7.606;2022-12-07T08:16:34;6.70;99.90
20985;DHT22;10651;47.552;7.606;2022-12-07T08:19:00;6.70;99.90
20985;DHT22;10651;47.552;7.606;2022-12-07T08:21:26;6.70;99.90
20985;DHT22;10651;47.552;7.606;2022-12-07T08:23:52;6.80;99.90
20985;DHT22;10651;47.552;7.606;2022-12-07T08:26:18;6.80;99.90
20985;DHT22;10651;47.552;7.606;2022-12-07T08:28:44;6.90;99.90
20985;DHT22;10651;47.552;7.606;2022-12-07T08:31:13;6.90;99.90
20985;DHT22;10651;47.552;7.606;2022-12-07T08:33:40;6.90;99.90
20985;DHT22;10651;47.552;7.606;2022-12-07T08:36:08;6.90;99.90
20985;DHT22;10651;47.552;7.606;2022-12-07T08:38:35;6.80;99.90
20985;DHT22;10651;47.552;7.606;2022-12-07T08:41:02;6.90;99.90
20985;DHT22;10651;47.552;7.606;2022-12-07T08:43:28;6.80;99.90
20985;DHT22;10651;47.552;7.606;2022-12-07T08:48:32;6.80;99.90
20985;DHT22;10651;47.552;7.606;2022-12-07T08:51:01;6.70;99.90
20985;DHT22;10651;47.552;7.606;2022-12-07T08:53:28;6.80;99.90
20985;DHT22;10651;47.552;7.606;2022-12-07T08:55:56;6.80;99.90
20985;DHT22;10651;47.552;7.606;2022-12-07T08:58:22;6.90;99.90
20985;DHT22;10651;47.552;7.606;2022-12-07T09:00:48;6.90;99.90
20985;DHT22;10651;47.552;7.606;2022-12-07T09:03:14;6.90;99.90
20985;DHT22;10651;47.552;7.606;2022-12-07T09:05:39;6.80;99.90
20985;DHT22;10651;47.552;7.606;2022-12-07T09:08:37;6.60;99.90
20985;DHT22;10651;47.552;7.606;2022-12-07T09:11:04;6.40;99.90
20985;DHT22;10651;47.552;7.606;2022-12-07T09:13:30;6.40;99.90
20985;DHT22;10651;47.552;7.606;2022-12-07T09:16:01;6.60;99.90
20985;DHT22;10651;47.552;7.606;2022-12-07T09:18:27;6.60;99.90
20985;DHT22;10651;47.552;7.606;2022-12-07T09:20:52;6.40;99.90
20985;DHT22;10651;47.552;7.606;2022-12-07T09:23:18;6.40;99.90
20985;DHT22;10651;47.552;7.606;2022-12-07T09:25:44;6.40;99.90
20985;DHT22;10651;47.552;7.606;2022-12-07T09:28:10;6.50;99.90
20985;DHT22;10651;47.552;7.606;2022-12-07T09:30:35;6.60;99.90
20985;DHT22;10651;47.552;7.606;2022-12-07T09:33:01;6.60;99.90
20985;DHT22;10651;47.552;7.606;2022-12-07T09:35:27;6.70;99.90
20985;DHT22;10651;47.552;7.606;2022-12-07T09:37:53;6.70;99.90
20985;DHT22;10651;47.552;7.606;2022-12-07T09:40:21;6.70;99.90
20985;DHT22;10651;47.552;7.606;2022-12-07T09:42:49;6.70;99.90
20985;DHT22;10651;47.552;7.606;2022-12-07T09:45:25;7.00;99.90
20985;DHT22;10651;47.552;7.606;2022-12-07T09:47:52;7.00;99.90
20985;DHT22;10651;47.552;7.606;2022-12-07T09:50:26;7.40;99.90
20985;DHT22;10651;47.552;7.606;2022-12-07T09:52:52;7.30;99.90
20985;DHT22;10651;47.552;7.606;2022-12-07T09:55:28;7.30;99.90
20985;DHT22;10651;47.552;7.606;2022-12-07T09:58:05;7.50;99.90
20985;DHT22;10651;47.552;7.606;2022-12-07T10:00:31;7.80;99.90
20985;DHT22;10651;47.552;7.606;2022-12-07T10:02:59;8.10;99.90
20985;DHT22;10651;47.552;7.606;2022-12-07T10:07:57;8.70;99.90
20985;DHT22;10651;47.552;7.606;2022-12-07T10:10:34;8.50;99.90
20985;DHT22;10651;47.552;7.606;2022-12-07T10:13:20;8.30;99.90
20985;DHT22;10651;47.552;7.606;2022-12-07T10:15:53;11.00;99.90
20985;DHT22;10651;47.552;7.606;2022-12-07T10:18:37;14.70;99.90
20985;DHT22;10651;47.552;7.606;2022-12-07T10:21:18;15.50;99.90
20985;DHT22;10651;47.552;7.606;2022-12-07T10:24:13;17.60;99.90
20985;DHT22;10651;47.552;7.606;2022-12-07T10:34:41;10.60;99.90
20985;DHT22;10651;47.552;7.606;2022-12-07T10:37:14;10.30;99.90
20985;DHT22;10651;47.552;7.606;2022-12-07T10:44:45;9.40;99.90
20985;DHT22;10651;47.552;7.606;2022-12-07T10:47:28;9.30;99.90
20985;DHT22;10651;47.552;7.606;2022-12-07T10:52:58;9.80;99.90
20985;DHT22;10651;47.552;7.606;2022-12-07T11:01:38;9.00;99.90
20985;DHT22;10651;47.552;7.606;2022-12-07T11:13:13;9.10;99.90
20985;DHT22;10651;47.552;7.606;2022-12-07T11:18:53;8.80;99.90
20985;DHT22;10651;47.552;7.606;2022-12-07T11:21:53;8.80;99.90
20985;DHT22;10651;47.552;7.606;2022-12-07T11:27:20;11.80;99.90
20985;DHT22;10651;47.552;7.606;2022-12-07T11:30:13;12.30;99.90
20985;DHT22;10651;47.552;7.606;2022-12-07T11:35:43;15.60;99.90
20985;DHT22;10651;47.552;7.606;2022-12-07T11:38:22;13.80;99.90
20985;DHT22;10651;47.552;7.606;2022-12-07T11:40:58;13.00;99.90
20985;DHT22;10651;47.552;7.606;2022-12-07T11:43:56;14.70;99.90
20985;DHT22;10651;47.552;7.606;2022-12-07T11:46:27;17.30;99.90
20985;DHT22;10651;47.552;7.606;2022-12-07T11:51:21;15.80;99.90
20985;DHT22;10651;47.552;7.606;2022-12-07T12:08:04;25.40;80.10
20985;DHT22;10651;47.552;7.606;2022-12-07T12:10:45;25.40;76.50
20985;DHT22;10651;47.552;7.606;2022-12-07T12:33:53;15.80;90.80
20985;DHT22;10651;47.552;7.606;2022-12-07T12:47:04;13.30;95.50
20985;DHT22;10651;47.552;7.606;2022-12-07T12:49:36;13.00;96.10
20985;DHT22;10651;47.552;7.606;2022-12-07T12:52:53;12.80;97.00
20985;DHT22;10651;47.552;7.606;2022-12-07T12:55:19;12.60;97.90
20985;DHT22;10651;47.552;7.606;2022-12-07T12:57:47;12.20;98.50
20985;DHT22;10651;47.552;7.606;2022-12-07T13:00:21;12.20;99.10
20985;DHT22;10651;47.552;7.606;2022-12-07T13:02:48;12.10;99.50
20985;DHT22;10651;47.552;7.606;2022-12-07T13:05:16;11.90;99.50
20985;DHT22;10651;47.552;7.606;2022-12-07T13:15:42;11.40;99.90
20985;DHT22;10651;47.552;7.606;2022-12-07T13:21:38;11.30;99.90
20985;DHT22;10651;47.552;7.606;2022-12-07T13:34:37;10.40;99.90
20985;DHT22;10651;47.552;7.606;2022-12-07T13:37:21;9.90;99.90
20985;DHT22;10651;47.552;7.606;2022-12-07T13:39:59;9.90;99.90
20985;DHT22;10651;47.552;7.606;2022-12-07T13:42:30;9.70;99.90
20985;DHT22;10651;47.552;7.606;2022-12-07T13:44:57;9.70;99.90
20985;DHT22;10651;47.552;7.606;2022-12-07T13:47:44;9.50;99.90
20985;DHT22;10651;47.552;7.606;2022-12-07T13:50:28;9.50;99.90
20985;DHT22;10651;47.552;7.606;2022-12-07T13:52:59;9.40;99.90
20985;DHT22;10651;47.552;7.606;2022-12-07T13:55:26;9.40;99.90
20985;DHT22;10651;47.552;7.606;2022-12-07T13:57:58;9.30;99.90
20985;DHT22;10651;47.552;7.606;2022-12-07T14:00:26;9.20;99.90
20985;DHT22;10651;47.552;7.606;2022-12-07T14:05:39;9.00;99.90
20985;DHT22;10651;47.552;7.606;2022-12-07T14:10:54;8.90;99.90
20985;DHT22;10651;47.552;7.606;2022-12-07T14:16:34;8.90;99.90
20985;DHT22;10651;47.552;7.606;2022-12-07T14:19:03;8.70;99.90
20985;DHT22;10651;47.552;7.606;2022-12-07T14:21:34;8.70;99.90
20985;DHT22;10651;47.552;7.606;2022-12-07T14:24:19;8.70;99.90
20985;DHT22;10651;47.552;7.606;2022-12-07T14:26:46;8.60;99.90
20985;DHT22;10651;47.552;7.606;2022-12-07T14:31:54;8.60;99.90
20985;DHT22;10651;47.552;7.606;2022-12-07T14:34:21;8.50;99.90
20985;DHT22;10651;47.552;7.606;2022-12-07T14:36:47;8.40;99.90
20985;DHT22;10651;47.552;7.606;2022-12-07T14:39:18;8.50;99.90
20985;DHT22;10651;47.552;7.606;2022-12-07T14:41:47;8.40;99.90
20985;DHT22;10651;47.552;7.606;2022-12-07T14:44:17;8.40;99.90
20985;DHT22;10651;47.552;7.606;2022-12-07T14:46:43;8.50;99.90
20985;DHT22;10651;47.552;7.606;2022-12-07T14:49:09;8.40;99.90
20985;DHT22;10651;47.552;7.606;2022-12-07T14:51:37;8.40;99.90
20985;DHT22;10651;47.552;7.606;2022-12-07T14:54:06;8.40;99.90
20985;DHT22;10651;47.552;7.606;2022-12-07T14:56:32;8.40;99.90
20985;DHT22;10651;47.552;7.606;2022-12-07T14:58:58;8.50;99.90
20985;DHT22;10651;47.552;7.606;2022-12-07T15:01:24;8.50;99.90
20985;DHT22;10651;47.552;7.606;2022-12-07T15:03:50;8.60;99.90
20985;DHT22;10651;47.552;7.606;2022-12-07T15:06:17;8.60;99.90
20985;DHT22;10651;47.552;7.606;2022-12-07T15:08:43;8.50;99.90
20985;DHT22;10651;47.552;7.606;2022-12-07T15:11:16;8.50;99.90
20985;DHT22;10651;47.552;7.606;2022-12-07T15:13:44;8.50;99.90
20985;DHT22;10651;47.552;7.606;2022-12-07T15:16:29;8.40;99.90
20985;DHT22;10651;47.552;7.606;2022-12-07T15:18:55;8.20;99.90
20985;DHT22;10651;47.552;7.606;2022-12-07T15:21:26;8.30;99.90
20985;DHT22;10651;47.552;7.606;2022-12-07T15:23:59;8.30;99.90
20985;DHT22;10651;47.552;7.606;2022-12-07T15:26:24;8.30;99.90
20985;DHT22;10651;47.552;7.606;2022-12-07T15:28:53;8.30;99.90
20985;DHT22;10651;47.552;7.606;2022-12-07T15:31:22;8.20;99.90
20985;DHT22;10651;47.552;7.606;2022-12-07T15:33:50;8.20;99.90
20985;DHT22;10651;47.552;7.606;2022-12-07T15:36:25;8.10;99.90
20985;DHT22;10651;47.552;7.606;2022-12-07T15:38:56;8.10;99.90
20985;DHT22;10651;47.552;7.606;2022-12-07T15:41:22;8.00;99.90
20985;DHT22;10651;47.552;7.606;2022-12-07T15:43:51;8.10;99.90
20985;DHT22;10651;47.552;7.606;2022-12-07T15:46:42;8.00;99.90
20985;DHT22;10651;47.552;7.606;2022-12-07T15:49:16;8.10;99.90
20985;DHT22;10651;47.552;7.606;2022-12-07T15:51:43;8.10;99.90
20985;DHT22;10651;47.552;7.606;2022-12-07T15:54:21;8.10;99.90
20985;DHT22;10651;47.552;7.606;2022-12-07T15:56:53;8.00;99.90
20985;DHT22;10651;47.552;7.606;2022-12-07T15:59:26;7.90;99.90
20985;DHT22;10651;47.552;7.606;2022-12-07T16:01:56;7.90;99.90
20985;DHT22;10651;47.552;7.606;2022-12-07T16:04:22;7.80;99.90
20985;DHT22;10651;47.552;7.606;2022-12-07T16:06:49;7.80;99.90
20985;DHT22;10651;47.552;7.606;2022-12-07T16:09:16;7.90;99.90
20985;DHT22;10651;47.552;7.606;2022-12-07T16:11:44;7.80;99.90
20985;DHT22;10651;47.552;7.606;2022-12-07T16:14:10;7.80;99.90
20985;DHT22;10651;47.552;7.606;2022-12-07T16:16:36;7.70;99.90
20985;DHT22;10651;47.552;7.606;2022-12-07T16:19:02;7.60;99.90
20985;DHT22;10651;47.552;7.606;2022-12-07T16:21:28;7.70;99.90
20985;DHT22;10651;47.552;7.606;2022-12-07T16:23:57;7.70;99.90
20985;DHT22;10651;47.552;7.606;2022-12-07T16:26:24;7.70;99.90
20985;DHT22;10651;47.552;7.606;2022-12-07T16:28:51;7.70;99.90
20985;DHT22;10651;47.552;7.606;2022-12-07T16:31:20;7.60;99.90
20985;DHT22;10651;47.552;7.606;2022-12-07T16:33:46;7.60;99.90
20985;DHT22;10651;47.552;7.606;2022-12-07T16:36:13;7.50;99.90
20985;DHT22;10651;47.552;7.606;2022-12-07T16:38:43;7.50;99.90
20985;DHT22;10651;47.552;7.606;2022-12-07T16:41:09;7.50;99.90
20985;DHT22;10651;47.552;7.606;2022-12-07T16:43:35;7.50;99.90
20985;DHT22;10651;47.552;7.606;2022-12-07T16:46:02;7.50;99.90
20985;DHT22;10651;47.552;7.606;2022-12-07T16:48:28;7.50;99.90
20985;DHT22;10651;47.552;7.606;2022-12-07T16:50:54;7.40;99.90
20985;DHT22;10651;47.552;7.606;2022-12-07T16:53:21;7.50;99.90
20985;DHT22;10651;47.552;7.606;2022-12-07T16:55:47;7.50;99.90
20985;DHT22;10651;47.552;7.606;2022-12-07T16:58:15;7.40;99.90
20985;DHT22;10651;47.552;7.606;2022-12-07T17:00:45;7.40;99.90
20985;DHT22;10651;47.552;7.606;2022-12-07T17:03:12;7.30;99.90
20985;DHT22;10651;47.552;7.606;2022-12-07T17:05:41;7.30;99.90
20985;DHT22;10651;47.552;7.606;2022-12-07T17:08:09;7.30;99.90
20985;DHT22;10651;47.552;7.606;2022-12-07T17:10:36;7.40;99.90
20985;DHT22;10651;47.552;7.606;2022-12-07T17:13:06;7.30;99.90
20985;DHT22;10651;47.552;7.606;2022-12-07T17:16:02;7.30;99.90
20985;DHT22;10651;47.552;7.606;2022-12-07T17:18:30;7.20;99.90
20985;DHT22;10651;47.552;7.606;2022-12-07T17:21:05;7.20;99.90
20985;DHT22;10651;47.552;7.606;2022-12-07T17:23:35;7.10;99.90
20985;DHT22;10651;47.552;7.606;2022-12-07T17:26:26;7.10;99.90
20985;DHT22;10651;47.552;7.606;2022-12-07T17:28:58;7.00;99.90
20985;DHT22;10651;47.552;7.606;2022-12-07T17:31:25;7.00;99.90
20985;DHT22;10651;47.552;7.606;2022-12-07T17:33:51;6.90;99.90
20985;DHT22;10651;47.552;7.606;2022-12-07T17:36:20;7.00;99.90
20985;DHT22;10651;47.552;7.606;2022-12-07T17:38:46;7.00;99.90
20985;DHT22;10651;47.552;7.606;2022-12-07T17:41:17;7.00;99.90
20985;DHT22;10651;47.552;7.606;2022-12-07T17:44:02;7.00;99.90
20985;DHT22;10651;47.552;7.606;2022-12-07T17:46:40;7.00;99.90
20985;DHT22;10651;47.552;7.606;2022-12-07T17:49:08;6.90;99.90
20985;DHT22;10651;47.552;7.606;2022-12-07T17:51:40;6.90;99.90
20985;DHT22;10651;47.552;7.606;2022-12-07T17:54:28;6.90;99.90
20985;DHT22;10651;47.552;7.606;2022-12-07T17:56:56;6.80;99.90
20985;DHT22;10651;47.552;7.606;2022-12-07T17:59:28;6.80;99.90
20985;DHT22;10651;47.552;7.606;2022-12-07T18:02:16;6.90;99.90
20985;DHT22;10651;47.552;7.606;2022-12-07T18:04:44;6.80;99.90
20985;DHT22;10651;47.552;7.606;2022-12-07T18:07:20;6.80;99.90
20985;DHT22;10651;47.552;7.606;2022-12-07T18:09:48;6.70;99.90
20985;DHT22;10651;47.552;7.606;2022-12-07T18:12:19;6.70;99.90
20985;DHT22;10651;47.552;7.606;2022-12-07T18:14:47;6.60;99.90
20985;DHT22;10651;47.552;7.606;2022-12-07T18:17:20;6.60;99.90
20985;DHT22;10651;47.552;7.606;2022-12-07T18:19:53;6.60;99.90
20985;DHT22;10651;47.552;7.606;2022-12-07T18:22:26;6.50;99.90
20985;DHT22;10651;47.552;7.606;2022-12-07T18:24:57;6.50;99.90
20985;DHT22;10651;47.552;7.606;2022-12-07T18:27:41;6.40;99.90
20985;DHT22;10651;47.552;7.606;2022-12-07T18:30:17;6.40;99.90
20985;DHT22;10651;47.552;7.606;2022-12-07T18:32:56;6.40;99.90
20985;DHT22;10651;47.552;7.606;2022-12-07T18:35:27;6.40;99.90
20985;DHT22;10651;47.552;7.606;2022-12-07T18:37:59;6.40;99.90
20985;DHT22;10651;47.552;7.606;2022-12-07T18:40:25;6.30;99.90
20985;DHT22;10651;47.552;7.606;2022-12-07T18:42:57;6.30;99.90
20985;DHT22;10651;47.552;7.606;2022-12-07T18:45:26;6.20;99.90
20985;DHT22;10651;47.552;7.606;2022-12-07T18:47:52;6.10;99.90
20985;DHT22;10651;47.552;7.606;2022-12-07T18:50:23;6.20;99.90
20985;DHT22;10651;47.552;7.606;2022-12-07T18:52:49;6.20;99.90
20985;DHT22;10651;47.552;7.606;2022-12-07T18:55:15;6.20;99.90
20985;DHT22;10651;47.552;7.606;2022-12-07T18:57:44;6.10;99.90
20985;DHT22;10651;47.552;7.606;2022-12-07T19:00:19;6.00;99.90
20985;DHT22;10651;47.552;7.606;2022-12-07T19:02:45;5.90;99.90
20985;DHT22;10651;47.552;7.606;2022-12-07T19:05:14;6.00;99.90
20985;DHT22;10651;47.552;7.606;2022-12-07T19:07:40;6.00;99.90
20985;DHT22;10651;47.552;7.606;2022-12-07T19:10:09;6.00;99.90
20985;DHT22;10651;47.552;7.606;2022-12-07T19:12:36;5.90;99.90
20985;DHT22;10651;47.552;7.606;2022-12-07T19:15:02;5.70;99.90
20985;DHT22;10651;47.552;7.606;2022-12-07T19:17:28;5.70;99.90
20985;DHT22;10651;47.552;7.606;2022-12-07T19:19:54;5.60;99.90
20985;DHT22;10651;47.552;7.606;2022-12-07T19:22:21;5.50;99.90
20985;DHT22;10651;47.552;7.606;2022-12-07T19:24:49;5.40;99.90
20985;DHT22;10651;47.552;7.606;2022-12-07T19:27:22;5.40;99.90
20985;DHT22;10651;47.552;7.606;2022-12-07T19:29:52;5.50;99.90
20985;DHT22;10651;47.552;7.606;2022-12-07T19:32:21;5.50;99.90
20985;DHT22;10651;47.552;7.606;2022-12-07T19:34:50;5.50;99.90
20985;DHT22;10651;47.552;7.606;2022-12-07T19:37:20;5.50;99.90
20985;DHT22;10651;47.552;7.606;2022-12-07T19:39:46;5.40;99.90
20985;DHT22;10651;47.552;7.606;2022-12-07T19:42:13;5.20;99.90
20985;DHT22;10651;47.552;7.606;2022-12-07T19:45:05;5.20;99.90
20985;DHT22;10651;47.552;7.606;2022-12-07T19:48:12;5.20;99.90
20985;DHT22;10651;47.552;7.606;2022-12-07T19:50:38;5.10;99.90
20985;DHT22;10651;47.552;7.606;2022-12-07T19:53:07;5.20;99.90
20985;DHT22;10651;47.552;7.606;2022-12-07T19:55:38;5.10;99.90
20985;DHT22;10651;47.552;7.606;2022-12-07T19:58:04;5.20;99.90
20985;DHT22;10651;47.552;7.606;2022-12-07T20:00:48;5.20;99.90
20985;DHT22;10651;47.552;7.606;2022-12-07T20:03:20;5.10;99.90
20985;DHT22;10651;47.552;7.606;2022-12-07T20:05:47;5.10;99.90
20985;DHT22;10651;47.552;7.606;2022-12-07T20:08:20;5.00;99.90
20985;DHT22;10651;47.552;7.606;2022-12-07T20:10:53;4.90;99.90
20985;DHT22;10651;47.552;7.606;2022-12-07T20:13:27;4.90;99.90
20985;DHT22;10651;47.552;7.606;2022-12-07T20:16:05;5.00;99.90
20985;DHT22;10651;47.552;7.606;2022-12-07T20:18:36;4.90;99.90
20985;DHT22;10651;47.552;7.606;2022-12-07T20:21:05;4.90;99.90
20985;DHT22;10651;47.552;7.606;2022-12-07T20:23:31;4.90;99.90
20985;DHT22;10651;47.552;7.606;2022-12-07T20:26:02;4.90;99.90
20985;DHT22;10651;47.552;7.606;2022-12-07T20:28:34;4.70;99.90
20985;DHT22;10651;47.552;7.606;2022-12-07T20:31:00;4.70;99.90
20985;DHT22;10651;47.552;7.606;2022-12-07T20:33:29;4.80;99.90
20985;DHT22;10651;47.552;7.606;2022-12-07T20:36:03;4.80;99.90
20985;DHT22;10651;47.552;7.606;2022-12-07T20:38:36;4.80;99.90
20985;DHT22;10651;47.552;7.606;2022-12-07T20:41:17;4.70;99.90
20985;DHT22;10651;47.552;7.606;2022-12-07T20:44:03;4.60;99.90
20985;DHT22;10651;47.552;7.606;2022-12-07T20:46:29;4.50;99.90
20985;DHT22;10651;47.552;7.606;2022-12-07T20:48:57;4.50;99.90
20985;DHT22;10651;47.552;7.606;2022-12-07T20:51:28;4.50;99.90
20985;DHT22;10651;47.552;7.606;2022-12-07T20:54:00;4.60;99.90
20985;DHT22;10651;47.552;7.606;2022-12-07T20:56:30;4.60;99.90
20985;DHT22;10651;47.552;7.606;2022-12-07T20:59:00;4.70;99.90
20985;DHT22;10651;47.552;7.606;2022-12-07T21:01:29;4.70;99.90
20985;DHT22;10651;47.552;7.606;2022-12-07T21:03:57;4.60;99.90
20985;DHT22;10651;47.552;7.606;2022-12-07T21:06:26;4.50;99.90
20985;DHT22;10651;47.552;7.606;2022-12-07T21:08:55;4.50;99.90
20985;DHT22;10651;47.552;7.606;2022-12-07T21:11:22;4.50;99.90
20985;DHT22;10651;47.552;7.606;2022-12-07T21:13:48;4.50;99.90
20985;DHT22;10651;47.552;7.606;2022-12-07T21:16:17;4.40;99.90
20985;DHT22;10651;47.552;7.606;2022-12-07T21:18:44;4.30;99.90
20985;DHT22;10651;47.552;7.606;2022-12-07T21:21:13;4.30;99.90
20985;DHT22;10651;47.552;7.606;2022-12-07T21:23:45;4.30;99.90
20985;DHT22;10651;47.552;7.606;2022-12-07T21:26:13;4.20;99.90
20985;DHT22;10651;47.552;7.606;2022-12-07T21:28:39;4.30;99.90
20985;DHT22;10651;47.552;7.606;2022-12-07T21:31:05;4.40;99.90
20985;DHT22;10651;47.552;7.606;2022-12-07T21:33:32;4.40;99.90
20985;DHT22;10651;47.552;7.606;2022-12-07T21:35:58;4.30;99.90
20985;DHT22;10651;47.552;7.606;2022-12-07T21:38:24;4.40;99.90
20985;DHT22;10651;47.552;7.606;2022-12-07T21:40:50;4.40;99.90
20985;DHT22;10651;47.552;7.606;2022-12-07T21:43:15;4.50;99.90
20985;DHT22;10651;47.552;7.606;2022-12-07T21:45:41;4.40;99.90
20985;DHT22;10651;47.552;7.606;2022-12-07T21:48:08;4.50;99.90
20985;DHT22;10651;47.552;7.606;2022-12-07T21:50:34;4.40;99.90
20985;DHT22;10651;47.552;7.606;2022-12-07T21:53:08;4.30;99.90
20985;DHT22;10651;47.552;7.606;2022-12-07T21:55:37;4.30;99.90
20985;DHT22;10651;47.552;7.606;2022-12-07T21:58:03;4.30;99.90
20985;DHT22;10651;47.552;7.606;2022-12-07T22:00:28;4.30;99.90
20985;DHT22;10651;47.552;7.606;2022-12-07T22:02:55;4.30;99.90
20985;DHT22;10651;47.552;7.606;2022-12-07T22:05:20;4.30;99.90
20985;DHT22;10651;47.552;7.606;2022-12-07T22:07:46;4.50;99.90
20985;DHT22;10651;47.552;7.606;2022-12-07T22:10:12;4.60;99.90
20985;DHT22;10651;47.552;7.606;2022-12-07T22:13:01;4.70;99.90
20985;DHT22;10651;47.552;7.606;2022-12-07T22:15:27;4.80;99.90
20985;DHT22;10651;47.552;7.606;2022-12-07T22:17:53;4.70;99.90
20985;DHT22;10651;47.552;7.606;2022-12-07T22:20:21;4.80;99.90
20985;DHT22;10651;47.552;7.606;2022-12-07T22:22:48;4.80;99.90
20985;DHT22;10651;47.552;7.606;2022-12-07T22:25:14;4.70;99.90
20985;DHT22;10651;47.552;7.606;2022-12-07T22:27:41;4.70;99.90
20985;DHT22;10651;47.552;7.606;2022-12-07T22:30:08;4.80;99.90
20985;DHT22;10651;47.552;7.606;2022-12-07T22:32:34;4.90;99.90
20985;DHT22;10651;47.552;7.606;2022-12-07T22:35:00;4.90;99.90
20985;DHT22;10651;47.552;7.606;2022-12-07T22:37:26;5.00;99.90
20985;DHT22;10651;47.552;7.606;2022-12-07T22:39:53;5.00;99.90
20985;DHT22;10651;47.552;7.606;2022-12-07T22:42:18;5.00;99.90
20985;DHT22;10651;47.552;7.606;2022-12-07T22:44:44;5.00;99.90
20985;DHT22;10651;47.552;7.606;2022-12-07T22:47:12;4.90;99.90
20985;DHT22;10651;47.552;7.606;2022-12-07T22:49:38;5.00;99.90
20985;DHT22;10651;47.552;7.606;2022-12-07T22:52:04;4.90;99.90
20985;DHT22;10651;47.552;7.606;2022-12-07T22:54:30;4.90;99.90
20985;DHT22;10651;47.552;7.606;2022-12-07T22:56:56;4.90;99.90
20985;DHT22;10651;47.552;7.606;2022-12-07T22:59:21;4.80;99.90
20985;DHT22;10651;47.552;7.606;2022-12-07T23:01:47;4.90;99.90
20985;DHT22;10651;47.552;7.606;2022-12-07T23:04:13;4.90;99.90
20985;DHT22;10651;47.552;7.606;2022-12-07T23:06:38;4.80;99.90
20985;DHT22;10651;47.552;7.606;2022-12-07T23:09:07;4.70;99.90
